sensor_id;sensor_type;location;lat;lon;timestamp;temperature;humidity
3418;DHT22;68007;51.312;12.372;2023-04-03T00:02:05;5.40;92.40
3418;DHT22;68007;51.312;12.372;2023-04-03T00:04:32;5.40;92.60
3418;DHT22;68007;51.312;12.372;2023-04-03T00:07:00;5.40;92.50
3418;DHT22;68007;51.312;12.372;2023-04-03T00:09:29;5.40;92.70
3418;DHT22;68007;51.312;12.372;2023-04-03T00:11:57;5.40;92.60
3418;DHT22;68007;51.312;12.372;2023-04-03T00:14:24;5.40;92.60
3418;DHT22;68007;51.312;12.372;2023-04-03T00:16:52;5.30;92.70
3418;DHT22;68007;51.312;12.372;2023-04-03T00:19:19;5.30;92.70
3418;DHT22;68007;51.312;12.372;2023-04-03T00:21:47;5.20;92.60
3418;DHT22;68007;51.312;12.372;2023-04-03T00:24:14;5.20;92.70
3418;DHT22;68007;51.312;12.372;2023-04-03T00:26:43;5.20;92.90
3418;DHT22;68007;51.312;12.372;2023-04-03T00:29:10;5.10;92.50
3418;DHT22;68007;51.312;12.372;2023-04-03T00:31:38;5.10;92.70
3418;DHT22;68007;51.312;12.372;2023-04-03T00:34:06;5.10;92.50
3418;DHT22;68007;51.312;12.372;2023-04-03T00:36:33;5.00;92.60
3418;DHT22;68007;51.312;12.372;2023-04-03T00:39:01;5.00;92.80
3418;DHT22;68007;51.312;12.372;2023-04-03T00:41:29;5.00;92.80
3418;DHT22;68007;51.312;12.372;2023-04-03T00:43:57;5.00;93.00
3418;DHT22;68007;51.312;12.372;2023-04-03T00:46:25;5.00;92.60
3418;DHT22;68007;51.312;12.372;2023-04-03T00:48:52;5.00;92.80
3418;DHT22;68007;51.312;12.372;2023-04-03T00:51:23;4.90;92.80
3418;DHT22;68007;51.312;12.372;2023-04-03T00:53:55;4.90;92.80
3418;DHT22;68007;51.312;12.372;2023-04-03T00:56:25;4.90;92.90
3418;DHT22;68007;51.312;12.372;2023-04-03T00:58:57;4.90;93.00
3418;DHT22;68007;51.312;12.372;2023-04-03T01:01:28;4.90;92.90
3418;DHT22;68007;51.312;12.372;2023-04-03T01:03:55;4.90;92.90
3418;DHT22;68007;51.312;12.372;2023-04-03T01:06:27;4.80;93.00
3418;DHT22;68007;51.312;12.372;2023-04-03T01:08:57;4.80;92.40
3418;DHT22;68007;51.312;12.372;2023-04-03T01:11:25;4.80;92.60
3418;DHT22;68007;51.312;12.372;2023-04-03T01:13:52;4.80;92.80
3418;DHT22;68007;51.312;12.372;2023-04-03T01:16:21;4.70;92.80
3418;DHT22;68007;51.312;12.372;2023-04-03T01:18:49;4.70;92.70
3418;DHT22;68007;51.312;12.372;2023-04-03T01:21:40;4.70;93.10
3418;DHT22;68007;51.312;12.372;2023-04-03T01:24:21;4.60;92.90
3418;DHT22;68007;51.312;12.372;2023-04-03T01:26:52;4.60;93.00
3418;DHT22;68007;51.312;12.372;2023-04-03T01:29:20;4.60;92.80
3418;DHT22;68007;51.312;12.372;2023-04-03T01:31:53;4.50;92.80
3418;DHT22;68007;51.312;12.372;2023-04-03T01:34:22;4.50;92.90
3418;DHT22;68007;51.312;12.372;2023-04-03T01:36:49;4.50;93.00
3418;DHT22;68007;51.312;12.372;2023-04-03T01:39:18;4.40;93.10
3418;DHT22;68007;51.312;12.372;2023-04-03T01:41:46;4.40;92.70
3418;DHT22;68007;51.312;12.372;2023-04-03T01:44:14;4.40;93.20
3418;DHT22;68007;51.312;12.372;2023-04-03T01:46:41;4.30;93.20
3418;DHT22;68007;51.312;12.372;2023-04-03T01:49:10;4.30;93.20
3418;DHT22;68007;51.312;12.372;2023-04-03T01:51:38;4.30;93.40
3418;DHT22;68007;51.312;12.372;2023-04-03T01:54:05;4.30;93.40
3418;DHT22;68007;51.312;12.372;2023-04-03T01:56:33;4.20;93.30
3418;DHT22;68007;51.312;12.372;2023-04-03T01:59:00;4.20;93.40
3418;DHT22;68007;51.312;12.372;2023-04-03T02:01:28;4.20;93.30
3418;DHT22;68007;51.312;12.372;2023-04-03T02:03:55;4.10;93.40
3418;DHT22;68007;51.312;12.372;2023-04-03T02:06:24;4.10;93.50
3418;DHT22;68007;51.312;12.372;2023-04-03T02:08:52;4.10;93.40
3418;DHT22;68007;51.312;12.372;2023-04-03T02:11:19;4.00;93.40
3418;DHT22;68007;51.312;12.372;2023-04-03T02:13:47;4.00;93.40
3418;DHT22;68007;51.312;12.372;2023-04-03T02:16:14;4.00;93.50
3418;DHT22;68007;51.312;12.372;2023-04-03T02:18:42;4.00;93.60
3418;DHT22;68007;51.312;12.372;2023-04-03T02:21:10;4.00;93.60
3418;DHT22;68007;51.312;12.372;2023-04-03T02:23:38;4.00;93.70
3418;DHT22;68007;51.312;12.372;2023-04-03T02:26:07;4.00;93.70
3418;DHT22;68007;51.312;12.372;2023-04-03T02:28:35;4.00;93.60
3418;DHT22;68007;51.312;12.372;2023-04-03T02:31:04;3.90;93.70
3418;DHT22;68007;51.312;12.372;2023-04-03T02:33:32;3.90;93.70
3418;DHT22;68007;51.312;12.372;2023-04-03T02:36:00;3.90;93.70
3418;DHT22;68007;51.312;12.372;2023-04-03T02:38:27;3.90;93.70
3418;DHT22;68007;51.312;12.372;2023-04-03T02:41:01;3.90;93.70
3418;DHT22;68007;51.312;12.372;2023-04-03T02:43:29;3.90;93.90
3418;DHT22;68007;51.312;12.372;2023-04-03T02:45:56;3.80;93.80
3418;DHT22;68007;51.312;12.372;2023-04-03T02:48:24;3.80;94.00
3418;DHT22;68007;51.312;12.372;2023-04-03T02:50:52;3.80;93.90
3418;DHT22;68007;51.312;12.372;2023-04-03T02:53:20;3.70;94.00
3418;DHT22;68007;51.312;12.372;2023-04-03T02:55:47;3.70;93.90
3418;DHT22;68007;51.312;12.372;2023-04-03T02:58:16;3.70;94.10
3418;DHT22;68007;51.312;12.372;2023-04-03T03:00:44;3.70;94.30
3418;DHT22;68007;51.312;12.372;2023-04-03T03:03:11;3.60;94.10
3418;DHT22;68007;51.312;12.372;2023-04-03T03:05:39;3.60;94.00
3418;DHT22;68007;51.312;12.372;2023-04-03T03:08:07;3.60;94.00
3418;DHT22;68007;51.312;12.372;2023-04-03T03:10:34;3.50;94.00
3418;DHT22;68007;51.312;12.372;2023-04-03T03:13:02;3.50;94.20
3418;DHT22;68007;51.312;12.372;2023-04-03T03:15:31;3.50;94.10
3418;DHT22;68007;51.312;12.372;2023-04-03T03:17:58;3.50;94.10
3418;DHT22;68007;51.312;12.372;2023-04-03T03:20:26;3.50;94.20
3418;DHT22;68007;51.312;12.372;2023-04-03T03:22:53;3.40;94.20
3418;DHT22;68007;51.312;12.372;2023-04-03T03:25:21;3.40;94.30
3418;DHT22;68007;51.312;12.372;2023-04-03T03:27:48;3.40;94.30
3418;DHT22;68007;51.312;12.372;2023-04-03T03:30:16;3.40;94.40
3418;DHT22;68007;51.312;12.372;2023-04-03T03:32:45;3.30;94.30
3418;DHT22;68007;51.312;12.372;2023-04-03T03:35:13;3.40;94.30
3418;DHT22;68007;51.312;12.372;2023-04-03T03:37:40;3.30;94.50
3418;DHT22;68007;51.312;12.372;2023-04-03T03:40:09;3.30;94.50
3418;DHT22;68007;51.312;12.372;2023-04-03T03:42:38;3.30;94.40
3418;DHT22;68007;51.312;12.372;2023-04-03T03:45:07;3.30;94.50
3418;DHT22;68007;51.312;12.372;2023-04-03T03:47:35;3.30;94.40
3418;DHT22;68007;51.312;12.372;2023-04-03T03:50:05;3.20;94.30
3418;DHT22;68007;51.312;12.372;2023-04-03T03:52:33;3.20;94.40
3418;DHT22;68007;51.312;12.372;2023-04-03T03:55:00;3.20;94.50
3418;DHT22;68007;51.312;12.372;2023-04-03T03:57:28;3.20;94.40
3418;DHT22;68007;51.312;12.372;2023-04-03T03:59:56;3.20;94.40
3418;DHT22;68007;51.312;12.372;2023-04-03T04:02:24;3.10;94.40
3418;DHT22;68007;51.312;12.372;2023-04-03T04:04:51;3.10;94.50
3418;DHT22;68007;51.312;12.372;2023-04-03T04:07:20;3.10;94.50
3418;DHT22;68007;51.312;12.372;2023-04-03T04:09:48;3.10;94.60
3418;DHT22;68007;51.312;12.372;2023-04-03T04:12:16;3.10;94.50
3418;DHT22;68007;51.312;12.372;2023-04-03T04:14:43;3.00;94.60
3418;DHT22;68007;51.312;12.372;2023-04-03T04:17:12;3.00;94.60
3418;DHT22;68007;51.312;12.372;2023-04-03T04:19:40;3.00;94.70
3418;DHT22;68007;51.312;12.372;2023-04-03T04:22:07;2.90;94.80
3418;DHT22;68007;51.312;12.372;2023-04-03T04:24:36;2.90;94.70
3418;DHT22;68007;51.312;12.372;2023-04-03T04:27:04;2.90;94.60
3418;DHT22;68007;51.312;12.372;2023-04-03T04:29:31;2.90;94.80
3418;DHT22;68007;51.312;12.372;2023-04-03T04:32:01;2.90;94.80
3418;DHT22;68007;51.312;12.372;2023-04-03T04:34:29;2.80;94.70
3418;DHT22;68007;51.312;12.372;2023-04-03T04:36:57;2.80;94.80
3418;DHT22;68007;51.312;12.372;2023-04-03T04:39:24;2.80;94.80
3418;DHT22;68007;51.312;12.372;2023-04-03T04:41:53;2.70;95.00
3418;DHT22;68007;51.312;12.372;2023-04-03T04:44:21;2.70;95.00
3418;DHT22;68007;51.312;12.372;2023-04-03T04:46:48;2.70;94.90
3418;DHT22;68007;51.312;12.372;2023-04-03T04:49:16;2.70;94.90
3418;DHT22;68007;51.312;12.372;2023-04-03T04:51:43;2.70;94.90
3418;DHT22;68007;51.312;12.372;2023-04-03T04:54:11;2.70;94.90
3418;DHT22;68007;51.312;12.372;2023-04-03T04:56:38;2.70;94.90
3418;DHT22;68007;51.312;12.372;2023-04-03T04:59:07;2.70;94.90
3418;DHT22;68007;51.312;12.372;2023-04-03T05:01:35;2.70;95.20
3418;DHT22;68007;51.312;12.372;2023-04-03T05:04:03;2.60;95.00
3418;DHT22;68007;51.312;12.372;2023-04-03T05:06:30;2.60;94.90
3418;DHT22;68007;51.312;12.372;2023-04-03T05:08:59;2.60;95.00
3418;DHT22;68007;51.312;12.372;2023-04-03T05:11:26;2.60;95.00
3418;DHT22;68007;51.312;12.372;2023-04-03T05:13:54;2.60;95.00
3418;DHT22;68007;51.312;12.372;2023-04-03T05:16:23;2.50;95.00
3418;DHT22;68007;51.312;12.372;2023-04-03T05:18:51;2.60;95.00
3418;DHT22;68007;51.312;12.372;2023-04-03T05:21:19;2.60;94.90
3418;DHT22;68007;51.312;12.372;2023-04-03T05:23:49;2.60;94.90
3418;DHT22;68007;51.312;12.372;2023-04-03T05:26:16;2.50;94.90
3418;DHT22;68007;51.312;12.372;2023-04-03T05:28:44;2.50;94.80
3418;DHT22;68007;51.312;12.372;2023-04-03T05:31:13;2.50;94.90
3418;DHT22;68007;51.312;12.372;2023-04-03T05:33:42;2.50;94.80
3418;DHT22;68007;51.312;12.372;2023-04-03T05:36:09;2.50;94.80
3418;DHT22;68007;51.312;12.372;2023-04-03T05:38:37;2.50;94.80
3418;DHT22;68007;51.312;12.372;2023-04-03T05:41:04;2.50;94.80
3418;DHT22;68007;51.312;12.372;2023-04-03T05:43:32;2.50;94.70
3418;DHT22;68007;51.312;12.372;2023-04-03T05:46:00;2.50;94.70
3418;DHT22;68007;51.312;12.372;2023-04-03T05:48:28;2.50;94.70
3418;DHT22;68007;51.312;12.372;2023-04-03T05:50:57;2.50;94.70
3418;DHT22;68007;51.312;12.372;2023-04-03T05:53:29;2.50;94.70
3418;DHT22;68007;51.312;12.372;2023-04-03T05:55:58;2.50;94.70
3418;DHT22;68007;51.312;12.372;2023-04-03T05:58:26;2.50;94.60
3418;DHT22;68007;51.312;12.372;2023-04-03T06:00:53;2.50;94.70
3418;DHT22;68007;51.312;12.372;2023-04-03T06:03:21;2.40;94.70
3418;DHT22;68007;51.312;12.372;2023-04-03T06:05:48;2.40;94.70
3418;DHT22;68007;51.312;12.372;2023-04-03T06:08:17;2.40;94.70
3418;DHT22;68007;51.312;12.372;2023-04-03T06:10:45;2.40;94.80
3418;DHT22;68007;51.312;12.372;2023-04-03T06:13:13;2.50;94.70
3418;DHT22;68007;51.312;12.372;2023-04-03T06:15:41;2.50;94.70
3418;DHT22;68007;51.312;12.372;2023-04-03T06:18:09;2.60;94.60
3418;DHT22;68007;51.312;12.372;2023-04-03T06:20:36;2.60;94.60
3418;DHT22;68007;51.312;12.372;2023-04-03T06:23:04;2.60;94.50
3418;DHT22;68007;51.312;12.372;2023-04-03T06:25:33;2.60;94.50
3418;DHT22;68007;51.312;12.372;2023-04-03T06:28:00;2.60;94.50
3418;DHT22;68007;51.312;12.372;2023-04-03T06:30:28;2.60;94.50
3418;DHT22;68007;51.312;12.372;2023-04-03T06:32:55;2.60;94.50
3418;DHT22;68007;51.312;12.372;2023-04-03T06:35:23;2.60;94.50
3418;DHT22;68007;51.312;12.372;2023-04-03T06:37:51;2.60;94.40
3418;DHT22;68007;51.312;12.372;2023-04-03T06:40:22;2.60;94.50
3418;DHT22;68007;51.312;12.372;2023-04-03T06:42:51;2.60;94.30
3418;DHT22;68007;51.312;12.372;2023-04-03T06:45:18;2.70;94.40
3418;DHT22;68007;51.312;12.372;2023-04-03T06:47:46;2.70;94.30
3418;DHT22;68007;51.312;12.372;2023-04-03T06:50:14;2.70;94.40
3418;DHT22;68007;51.312;12.372;2023-04-03T06:52:42;2.70;94.00
3418;DHT22;68007;51.312;12.372;2023-04-03T06:55:09;2.70;94.10
3418;DHT22;68007;51.312;12.372;2023-04-03T06:57:37;2.80;94.20
3418;DHT22;68007;51.312;12.372;2023-04-03T07:00:07;2.80;94.20
3418;DHT22;68007;51.312;12.372;2023-04-03T07:02:36;2.80;93.80
3418;DHT22;68007;51.312;12.372;2023-04-03T07:05:04;2.80;93.90
3418;DHT22;68007;51.312;12.372;2023-04-03T07:07:32;2.80;93.90
3418;DHT22;68007;51.312;12.372;2023-04-03T07:10:00;2.90;93.80
3418;DHT22;68007;51.312;12.372;2023-04-03T07:12:27;2.80;93.30
3418;DHT22;68007;51.312;12.372;2023-04-03T07:14:55;2.90;93.30
3418;DHT22;68007;51.312;12.372;2023-04-03T07:17:24;2.90;93.30
3418;DHT22;68007;51.312;12.372;2023-04-03T07:19:51;2.90;92.90
3418;DHT22;68007;51.312;12.372;2023-04-03T07:22:19;3.00;92.60
3418;DHT22;68007;51.312;12.372;2023-04-03T07:24:46;2.80;92.20
3418;DHT22;68007;51.312;12.372;2023-04-03T07:27:14;2.90;92.40
3418;DHT22;68007;51.312;12.372;2023-04-03T07:29:42;3.00;92.60
3418;DHT22;68007;51.312;12.372;2023-04-03T07:32:10;3.00;92.80
3418;DHT22;68007;51.312;12.372;2023-04-03T07:34:39;3.10;92.60
3418;DHT22;68007;51.312;12.372;2023-04-03T07:37:07;3.10;92.70
3418;DHT22;68007;51.312;12.372;2023-04-03T07:39:35;3.20;92.30
3418;DHT22;68007;51.312;12.372;2023-04-03T07:42:02;3.20;90.80
3418;DHT22;68007;51.312;12.372;2023-04-03T07:44:30;3.20;90.70
3418;DHT22;68007;51.312;12.372;2023-04-03T07:46:58;3.20;91.30
3418;DHT22;68007;51.312;12.372;2023-04-03T07:49:26;3.30;91.70
3418;DHT22;68007;51.312;12.372;2023-04-03T07:51:55;3.30;91.90
3418;DHT22;68007;51.312;12.372;2023-04-03T07:54:22;3.30;91.80
3418;DHT22;68007;51.312;12.372;2023-04-03T07:56:50;3.30;90.60
3418;DHT22;68007;51.312;12.372;2023-04-03T07:59:17;3.30;91.10
3418;DHT22;68007;51.312;12.372;2023-04-03T08:01:45;3.40;90.60
3418;DHT22;68007;51.312;12.372;2023-04-03T08:04:12;3.50;91.10
3418;DHT22;68007;51.312;12.372;2023-04-03T08:06:40;3.60;91.20
3418;DHT22;68007;51.312;12.372;2023-04-03T08:09:09;3.60;91.40
3418;DHT22;68007;51.312;12.372;2023-04-03T08:11:38;3.60;91.40
3418;DHT22;68007;51.312;12.372;2023-04-03T08:14:06;3.50;91.30
3418;DHT22;68007;51.312;12.372;2023-04-03T08:16:33;3.50;91.40
3418;DHT22;68007;51.312;12.372;2023-04-03T08:19:01;3.50;90.90
3418;DHT22;68007;51.312;12.372;2023-04-03T08:21:29;3.50;91.30
3418;DHT22;68007;51.312;12.372;2023-04-03T08:23:56;3.40;90.40
3418;DHT22;68007;51.312;12.372;2023-04-03T08:26:25;3.40;90.70
3418;DHT22;68007;51.312;12.372;2023-04-03T08:28:53;3.50;91.10
3418;DHT22;68007;51.312;12.372;2023-04-03T08:31:21;3.50;90.20
3418;DHT22;68007;51.312;12.372;2023-04-03T08:33:48;3.60;90.60
3418;DHT22;68007;51.312;12.372;2023-04-03T08:36:18;3.60;91.20
3418;DHT22;68007;51.312;12.372;2023-04-03T08:38:47;3.70;90.70
3418;DHT22;68007;51.312;12.372;2023-04-03T08:41:20;3.70;90.20
3418;DHT22;68007;51.312;12.372;2023-04-03T08:44:03;3.80;90.60
3418;DHT22;68007;51.312;12.372;2023-04-03T08:46:46;3.80;90.50
3418;DHT22;68007;51.312;12.372;2023-04-03T08:49:20;3.80;87.40
3418;DHT22;68007;51.312;12.372;2023-04-03T08:51:50;3.80;89.00
3418;DHT22;68007;51.312;12.372;2023-04-03T08:54:28;3.80;89.60
3418;DHT22;68007;51.312;12.372;2023-04-03T08:56:58;3.80;89.40
3418;DHT22;68007;51.312;12.372;2023-04-03T08:59:32;3.90;89.10
3418;DHT22;68007;51.312;12.372;2023-04-03T09:02:04;3.80;86.30
3418;DHT22;68007;51.312;12.372;2023-04-03T09:04:33;3.90;86.90
3418;DHT22;68007;51.312;12.372;2023-04-03T09:07:08;3.90;85.00
3418;DHT22;68007;51.312;12.372;2023-04-03T09:09:41;4.00;86.80
3418;DHT22;68007;51.312;12.372;2023-04-03T09:12:17;4.10;84.80
3418;DHT22;68007;51.312;12.372;2023-04-03T09:14:55;4.20;81.70
3418;DHT22;68007;51.312;12.372;2023-04-03T09:17:35;4.30;80.80
3418;DHT22;68007;51.312;12.372;2023-04-03T09:20:16;4.40;81.90
3418;DHT22;68007;51.312;12.372;2023-04-03T09:22:44;4.40;82.60
3418;DHT22;68007;51.312;12.372;2023-04-03T09:25:14;4.50;86.30
3418;DHT22;68007;51.312;12.372;2023-04-03T09:27:43;4.60;82.10
3418;DHT22;68007;51.312;12.372;2023-04-03T09:30:15;4.60;80.20
3418;DHT22;68007;51.312;12.372;2023-04-03T09:32:45;4.60;81.30
3418;DHT22;68007;51.312;12.372;2023-04-03T09:35:24;4.60;83.50
3418;DHT22;68007;51.312;12.372;2023-04-03T09:37:53;4.60;81.20
3418;DHT22;68007;51.312;12.372;2023-04-03T09:40:36;4.60;79.30
3418;DHT22;68007;51.312;12.372;2023-04-03T09:43:26;4.50;80.80
3418;DHT22;68007;51.312;12.372;2023-04-03T09:46:15;4.60;84.10
3418;DHT22;68007;51.312;12.372;2023-04-03T09:48:50;4.50;84.50
3418;DHT22;68007;51.312;12.372;2023-04-03T09:51:18;4.50;84.80
3418;DHT22;68007;51.312;12.372;2023-04-03T09:53:45;4.50;82.50
3418;DHT22;68007;51.312;12.372;2023-04-03T09:56:21;4.50;84.60
3418;DHT22;68007;51.312;12.372;2023-04-03T09:58:51;4.60;83.40
3418;DHT22;68007;51.312;12.372;2023-04-03T10:01:28;4.70;83.70
3418;DHT22;68007;51.312;12.372;2023-04-03T10:04:08;4.80;79.10
3418;DHT22;68007;51.312;12.372;2023-04-03T10:06:39;4.90;79.00
3418;DHT22;68007;51.312;12.372;2023-04-03T10:09:18;5.00;81.10
3418;DHT22;68007;51.312;12.372;2023-04-03T10:12:01;5.10;81.40
3418;DHT22;68007;51.312;12.372;2023-04-03T10:14:32;5.20;80.10
3418;DHT22;68007;51.312;12.372;2023-04-03T10:17:13;5.20;82.00
3418;DHT22;68007;51.312;12.372;2023-04-03T10:19:45;5.20;81.90
3418;DHT22;68007;51.312;12.372;2023-04-03T10:22:20;5.20;82.20
3418;DHT22;68007;51.312;12.372;2023-04-03T10:24:55;5.30;82.00
3418;DHT22;68007;51.312;12.372;2023-04-03T10:27:36;5.30;80.50
3418;DHT22;68007;51.312;12.372;2023-04-03T10:30:20;5.40;82.00
3418;DHT22;68007;51.312;12.372;2023-04-03T10:32:58;5.40;82.00
3418;DHT22;68007;51.312;12.372;2023-04-03T10:35:37;5.40;77.80
3418;DHT22;68007;51.312;12.372;2023-04-03T10:38:12;5.50;81.70
3418;DHT22;68007;51.312;12.372;2023-04-03T10:40:49;5.50;81.50
3418;DHT22;68007;51.312;12.372;2023-04-03T10:43:27;5.60;80.80
3418;DHT22;68007;51.312;12.372;2023-04-03T10:46:00;5.70;80.70
3418;DHT22;68007;51.312;12.372;2023-04-03T10:48:44;5.80;80.90
3418;DHT22;68007;51.312;12.372;2023-04-03T10:51:23;5.70;80.40
3418;DHT22;68007;51.312;12.372;2023-04-03T10:53:56;5.70;78.30
3418;DHT22;68007;51.312;12.372;2023-04-03T10:56:35;5.70;80.20
3418;DHT22;68007;51.312;12.372;2023-04-03T10:59:16;5.70;80.70
3418;DHT22;68007;51.312;12.372;2023-04-03T11:01:48;5.70;80.80
3418;DHT22;68007;51.312;12.372;2023-04-03T11:04:21;5.80;80.50
3418;DHT22;68007;51.312;12.372;2023-04-03T11:06:56;5.90;80.20
3418;DHT22;68007;51.312;12.372;2023-04-03T11:09:26;6.00;79.40
3418;DHT22;68007;51.312;12.372;2023-04-03T11:11:58;6.20;77.40
3418;DHT22;68007;51.312;12.372;2023-04-03T11:14:32;6.30;78.60
3418;DHT22;68007;51.312;12.372;2023-04-03T11:17:11;6.30;79.80
3418;DHT22;68007;51.312;12.372;2023-04-03T11:19:47;6.40;78.60
3418;DHT22;68007;51.312;12.372;2023-04-03T11:22:22;6.40;80.60
3418;DHT22;68007;51.312;12.372;2023-04-03T11:24:59;6.60;77.60
3418;DHT22;68007;51.312;12.372;2023-04-03T11:27:35;6.80;77.70
3418;DHT22;68007;51.312;12.372;2023-04-03T11:30:09;7.00;74.70
3418;DHT22;68007;51.312;12.372;2023-04-03T11:32:54;7.10;76.90
3418;DHT22;68007;51.312;12.372;2023-04-03T11:35:27;7.20;76.60
3418;DHT22;68007;51.312;12.372;2023-04-03T11:37:55;7.10;76.60
3418;DHT22;68007;51.312;12.372;2023-04-03T11:40:26;7.00;76.80
3418;DHT22;68007;51.312;12.372;2023-04-03T11:43:05;7.00;70.40
3418;DHT22;68007;51.312;12.372;2023-04-03T11:45:36;7.10;75.00
3418;DHT22;68007;51.312;12.372;2023-04-03T11:48:06;7.30;76.80
3418;DHT22;68007;51.312;12.372;2023-04-03T11:50:55;7.70;77.90
3418;DHT22;68007;51.312;12.372;2023-04-03T11:53:28;8.10;73.40
3418;DHT22;68007;51.312;12.372;2023-04-03T11:55:58;8.30;75.40
3418;DHT22;68007;51.312;12.372;2023-04-03T11:58:29;8.20;73.90
3418;DHT22;68007;51.312;12.372;2023-04-03T12:01:08;8.10;73.10
3418;DHT22;68007;51.312;12.372;2023-04-03T12:10:17;8.10;76.00
3418;DHT22;68007;51.312;12.372;2023-04-03T12:12:58;8.70;74.20
3418;DHT22;68007;51.312;12.372;2023-04-03T12:15:44;9.10;74.00
3418;DHT22;68007;51.312;12.372;2023-04-03T12:18:43;9.50;72.80
3418;DHT22;68007;51.312;12.372;2023-04-03T12:21:12;9.70;71.60
3418;DHT22;68007;51.312;12.372;2023-04-03T12:27:00;9.40;69.90
3418;DHT22;68007;51.312;12.372;2023-04-03T12:29:33;9.30;71.00
3418;DHT22;68007;51.312;12.372;2023-04-03T12:32:14;9.40;72.70
3418;DHT22;68007;51.312;12.372;2023-04-03T12:35:01;9.60;70.60
3418;DHT22;68007;51.312;12.372;2023-04-03T12:37:43;9.60;70.00
3418;DHT22;68007;51.312;12.372;2023-04-03T12:40:19;9.50;70.00
3418;DHT22;68007;51.312;12.372;2023-04-03T12:43:13;9.30;70.00
3418;DHT22;68007;51.312;12.372;2023-04-03T12:45:48;9.20;67.40
3418;DHT22;68007;51.312;12.372;2023-04-03T12:48:24;9.00;70.00
3418;DHT22;68007;51.312;12.372;2023-04-03T12:50:52;8.90;70.10
3418;DHT22;68007;51.312;12.372;2023-04-03T12:53:22;9.00;70.60
3418;DHT22;68007;51.312;12.372;2023-04-03T12:55:53;9.20;72.80
3418;DHT22;68007;51.312;12.372;2023-04-03T12:58:24;9.30;70.90
3418;DHT22;68007;51.312;12.372;2023-04-03T13:01:03;9.30;70.30
3418;DHT22;68007;51.312;12.372;2023-04-03T13:03:31;9.10;68.60
3418;DHT22;68007;51.312;12.372;2023-04-03T13:06:01;9.00;69.80
3418;DHT22;68007;51.312;12.372;2023-04-03T13:08:30;8.90;69.80
3418;DHT22;68007;51.312;12.372;2023-04-03T13:11:00;8.80;69.60
3418;DHT22;68007;51.312;12.372;2023-04-03T13:13:30;8.70;70.10
3418;DHT22;68007;51.312;12.372;2023-04-03T13:15:57;8.70;70.30
3418;DHT22;68007;51.312;12.372;2023-04-03T13:18:30;8.70;71.00
3418;DHT22;68007;51.312;12.372;2023-04-03T13:21:02;8.60;70.00
3418;DHT22;68007;51.312;12.372;2023-04-03T13:23:30;8.60;71.50
3418;DHT22;68007;51.312;12.372;2023-04-03T13:25:59;8.60;70.60
3418;DHT22;68007;51.312;12.372;2023-04-03T13:28:32;8.50;70.00
3418;DHT22;68007;51.312;12.372;2023-04-03T13:31:04;8.50;70.10
3418;DHT22;68007;51.312;12.372;2023-04-03T13:33:34;8.40;70.00
3418;DHT22;68007;51.312;12.372;2023-04-03T13:36:06;8.30;69.00
3418;DHT22;68007;51.312;12.372;2023-04-03T13:38:34;8.20;69.90
3418;DHT22;68007;51.312;12.372;2023-04-03T13:41:05;8.30;71.60
3418;DHT22;68007;51.312;12.372;2023-04-03T13:43:36;8.20;70.50
3418;DHT22;68007;51.312;12.372;2023-04-03T13:46:25;8.20;70.00
3418;DHT22;68007;51.312;12.372;2023-04-03T13:48:54;8.20;69.80
3418;DHT22;68007;51.312;12.372;2023-04-03T13:51:24;8.20;69.90
3418;DHT22;68007;51.312;12.372;2023-04-03T13:53:55;8.10;69.50
3418;DHT22;68007;51.312;12.372;2023-04-03T13:56:27;8.10;69.90
3418;DHT22;68007;51.312;12.372;2023-04-03T13:59:05;8.10;68.30
3418;DHT22;68007;51.312;12.372;2023-04-03T14:01:44;8.00;68.90
3418;DHT22;68007;51.312;12.372;2023-04-03T14:04:17;8.00;69.20
3418;DHT22;68007;51.312;12.372;2023-04-03T14:06:47;8.00;69.20
3418;DHT22;68007;51.312;12.372;2023-04-03T14:09:15;8.10;69.70
3418;DHT22;68007;51.312;12.372;2023-04-03T14:11:43;8.00;69.00
3418;DHT22;68007;51.312;12.372;2023-04-03T14:14:16;8.10;69.50
3418;DHT22;68007;51.312;12.372;2023-04-03T14:16:47;8.00;69.20
3418;DHT22;68007;51.312;12.372;2023-04-03T14:19:19;8.00;68.90
3418;DHT22;68007;51.312;12.372;2023-04-03T14:21:47;7.90;69.90
3418;DHT22;68007;51.312;12.372;2023-04-03T14:24:14;7.90;69.70
3418;DHT22;68007;51.312;12.372;2023-04-03T14:26:43;7.90;70.60
3418;DHT22;68007;51.312;12.372;2023-04-03T14:29:12;7.80;71.20
3418;DHT22;68007;51.312;12.372;2023-04-03T14:31:42;7.90;71.20
3418;DHT22;68007;51.312;12.372;2023-04-03T14:34:10;7.80;70.50
3418;DHT22;68007;51.312;12.372;2023-04-03T14:36:39;7.80;70.40
3418;DHT22;68007;51.312;12.372;2023-04-03T14:39:08;7.70;70.00
3418;DHT22;68007;51.312;12.372;2023-04-03T14:41:38;7.70;70.40
3418;DHT22;68007;51.312;12.372;2023-04-03T14:44:05;7.60;70.70
3418;DHT22;68007;51.312;12.372;2023-04-03T14:46:35;7.60;69.10
3418;DHT22;68007;51.312;12.372;2023-04-03T14:49:13;7.60;69.60
3418;DHT22;68007;51.312;12.372;2023-04-03T14:51:41;7.60;70.90
3418;DHT22;68007;51.312;12.372;2023-04-03T14:54:13;7.60;70.10
3418;DHT22;68007;51.312;12.372;2023-04-03T14:56:41;7.50;70.80
3418;DHT22;68007;51.312;12.372;2023-04-03T14:59:12;7.50;69.30
3418;DHT22;68007;51.312;12.372;2023-04-03T15:01:40;7.50;70.40
3418;DHT22;68007;51.312;12.372;2023-04-03T15:04:13;7.40;69.50
3418;DHT22;68007;51.312;12.372;2023-04-03T15:06:41;7.30;69.70
3418;DHT22;68007;51.312;12.372;2023-04-03T15:09:18;7.30;67.00
3418;DHT22;68007;51.312;12.372;2023-04-03T15:11:46;7.30;71.00
3418;DHT22;68007;51.312;12.372;2023-04-03T15:14:14;7.30;69.40
3418;DHT22;68007;51.312;12.372;2023-04-03T15:16:41;7.30;70.10
3418;DHT22;68007;51.312;12.372;2023-04-03T15:19:10;7.30;69.40
3418;DHT22;68007;51.312;12.372;2023-04-03T15:21:39;7.30;69.70
3418;DHT22;68007;51.312;12.372;2023-04-03T15:24:06;7.30;69.80
3418;DHT22;68007;51.312;12.372;2023-04-03T15:26:34;7.30;70.30
3418;DHT22;68007;51.312;12.372;2023-04-03T15:29:02;7.30;71.80
3418;DHT22;68007;51.312;12.372;2023-04-03T15:31:30;7.30;70.60
3418;DHT22;68007;51.312;12.372;2023-04-03T15:33:57;7.30;69.30
3418;DHT22;68007;51.312;12.372;2023-04-03T15:36:25;7.30;70.80
3418;DHT22;68007;51.312;12.372;2023-04-03T15:38:54;7.30;69.70
3418;DHT22;68007;51.312;12.372;2023-04-03T15:41:21;7.20;68.30
3418;DHT22;68007;51.312;12.372;2023-04-03T15:43:49;7.20;69.40
3418;DHT22;68007;51.312;12.372;2023-04-03T15:46:16;7.10;67.00
3418;DHT22;68007;51.312;12.372;2023-04-03T15:48:44;7.10;70.10
3418;DHT22;68007;51.312;12.372;2023-04-03T15:51:11;7.20;70.30
3418;DHT22;68007;51.312;12.372;2023-04-03T15:53:39;7.20;68.50
3418;DHT22;68007;51.312;12.372;2023-04-03T15:56:08;7.20;70.30
3418;DHT22;68007;51.312;12.372;2023-04-03T15:58:35;7.20;69.90
3418;DHT22;68007;51.312;12.372;2023-04-03T16:01:03;7.20;71.30
3418;DHT22;68007;51.312;12.372;2023-04-03T16:03:31;7.10;71.20
3418;DHT22;68007;51.312;12.372;2023-04-03T16:05:58;7.10;71.40
3418;DHT22;68007;51.312;12.372;2023-04-03T16:08:27;7.10;70.80
3418;DHT22;68007;51.312;12.372;2023-04-03T16:10:55;7.00;64.90
3418;DHT22;68007;51.312;12.372;2023-04-03T16:13:24;7.10;69.20
3418;DHT22;68007;51.312;12.372;2023-04-03T16:15:52;7.00;68.90